Etusivu
METAR-TAF:

METAR-TAF

Lentoasemat :

Boothville-Venice, Louisiana, Yhdysvallat

Leveyspiiri: 29-20N, Pituuspiiri: 089-24W, korkeus merenpinnasta: 0 m

Tämänhetkinen sää

Tämä raportti tehtiin 16 minuuttia sitten, kello 21.51 UTC
Tuuli 7 kn pohjoisen/luoteesta
Lämpötila 14°C
Kosteus 51%
Ilmanpaine 1018 hPa
Näkyvyys: 16.1 km
selkeää

METAR: KBVE 162151Z AUTO 33007KT 10SM CLR 14/04 A3007 RMK AO2 SLP180 T01390044 $

Aika: 16:07 (22:07 UTC)


TAF: puuttuu

Säähavainnot ja -ennusteet yli 4000 lentoasemalta (METAR- ja TAF-raportit).

Käytössä olevat sääasemat on merkitty karttaan keltaisilla ja punaisilla pisteillä.

Aseta hiiri pisteen päälle nähdäksesi sääaseman nimen.

Klikkaa sitten nähdäksesi säähavainnot ja -ennusteet.

Kartan vaihtaminen: klikkaa mustalla rastilla varustettuja vihreitä pisteitä, niin voit zoomata sisään; viivalla varustettua vihreää pistettä, niin voit zoomata ulos tai vihreitä nuolia, niin pääset viereisille kartoille.


METAR-TAF: